Terminal Aerodrome Forecast
Issued by NWS Charleston, WV

Current Version | Previous Version | Text Only | Print | Product List | Glossary Off
Versions: 1 2 3 4 5 6 7 8 9 10 11 12 13 14 15 16 17 18 19 20 21 22 23 24 25 26 27

924
FTUS41 KRLX 261425 AAA
TAFEKN
TAF AMD
KEKN 261425Z 2614/2712 17010G20KT P6SM BKN150
     FM261700 17009G19KT P6SM -SHRA BKN050
     FM262000 17010G18KT P6SM SHRA BKN030
     FM270000 16008KT 5SM SHRA BKN030=

USA.gov is the U.S. government's official web portal to all federal, state and local government web resources and services.